createdAt,value
2019-02-22T00:00:50.181Z,44.25
2019-02-22T00:01:55.436Z,37.38
2019-02-22T00:02:58.927Z,36.53
2019-02-22T00:04:02.516Z,28.55
2019-02-22T00:05:06.279Z,44.10
2019-02-22T00:06:09.778Z,37.45
2019-02-22T00:07:13.287Z,42.15
2019-02-22T00:08:16.719Z,39.10
2019-02-22T00:09:20.148Z,32.78
2019-02-22T00:10:23.751Z,40.25
2019-02-22T00:11:27.180Z,40.25
2019-02-22T00:12:30.746Z,39.53
2019-02-22T00:13:34.204Z,32.50
2019-02-22T00:14:37.663Z,40.95
2019-02-22T00:15:41.132Z,33.50
2019-02-22T00:16:44.656Z,40.70
2019-02-22T00:17:48.221Z,28.27
2019-02-22T00:18:51.655Z,34.40
2019-02-22T00:19:55.086Z,29.48
2019-02-22T00:20:58.541Z,32.23
2019-02-22T00:22:02.013Z,31.73
2019-02-22T00:23:05.506Z,37.30
2019-02-22T00:24:08.939Z,33.18
2019-02-22T00:25:12.441Z,37.17
2019-02-22T00:26:15.891Z,36.80
2019-02-22T00:27:19.387Z,34.90
2019-02-22T00:28:22.827Z,33.60
2019-02-22T00:29:26.338Z,36.58
2019-02-22T00:30:29.849Z,42.90
2019-02-22T00:31:33.380Z,34.50
2019-02-22T00:32:36.903Z,45.12
2019-02-22T00:33:40.343Z,34.20
2019-02-22T00:34:43.855Z,33.45
2019-02-22T00:35:47.409Z,35.10
2019-02-22T00:36:50.836Z,30.43
2019-02-22T00:37:54.277Z,33.13
2019-02-22T00:38:57.711Z,35.78
2019-02-22T00:40:01.153Z,39.33
2019-02-22T00:41:04.664Z,30.60
2019-02-22T00:42:08.120Z,45.38
2019-02-22T00:43:11.575Z,37.80
2019-02-22T00:44:15.002Z,34.45
2019-02-22T00:45:18.442Z,42.00
2019-02-22T00:46:21.942Z,43.48
2019-02-22T00:47:25.387Z,41.28
2019-02-22T00:48:28.829Z,40.55
2019-02-22T00:49:32.260Z,49.10
2019-02-22T00:50:35.689Z,38.15
2019-02-22T00:51:39.199Z,36.48
2019-02-22T00:52:42.658Z,36.73
2019-02-22T00:53:46.108Z,42.67
2019-02-22T00:54:49.605Z,38.60
2019-02-22T00:55:53.053Z,38.30
2019-02-22T00:56:56.515Z,39.45
2019-02-22T00:57:59.961Z,37.40
2019-02-22T00:59:03.398Z,43.55
2019-02-22T01:00:09.181Z,36.73
2019-02-22T01:01:12.610Z,36.58
2019-02-22T01:02:16.050Z,48.00
2019-02-22T01:03:19.573Z,43.13
2019-02-22T01:04:23.089Z,43.17
2019-02-22T01:05:26.516Z,45.20
2019-02-22T01:06:29.954Z,51.80
2019-02-22T01:07:33.403Z,43.10
2019-02-22T01:08:36.848Z,41.25
2019-02-22T01:09:40.365Z,41.30
2019-02-22T01:10:43.818Z,39.55
2019-02-22T01:11:47.265Z,41.73
2019-02-22T01:12:50.681Z,42.58
2019-02-22T01:13:54.231Z,40.25
2019-02-22T01:14:57.674Z,45.00
2019-02-22T01:16:01.103Z,44.88
2019-02-22T01:17:04.527Z,42.03
2019-02-22T01:18:08.034Z,41.98
2019-02-22T01:19:11.515Z,42.98
2019-02-22T01:20:15.022Z,39.98
2019-02-22T01:21:18.489Z,45.60
2019-02-22T01:22:21.912Z,35.78
2019-02-22T01:23:25.351Z,46.83
2019-02-22T01:24:28.876Z,41.95
2019-02-22T01:25:32.373Z,35.58
2019-02-22T01:26:35.819Z,41.55
2019-02-22T01:27:39.250Z,39.53
2019-02-22T01:28:42.669Z,38.65
2019-02-22T01:29:46.190Z,38.17
2019-02-22T01:30:49.644Z,40.45
2019-02-22T01:31:53.075Z,42.03
2019-02-22T01:32:56.516Z,47.88
2019-02-22T01:34:00.013Z,38.23
2019-02-22T01:35:03.461Z,44.42
2019-02-22T01:36:06.904Z,36.85
2019-02-22T01:37:10.405Z,39.90
2019-02-22T01:38:13.850Z,44.50
2019-02-22T01:39:17.274Z,42.00
2019-02-22T01:40:20.722Z,39.27
2019-02-22T01:41:24.155Z,41.48
2019-02-22T01:42:27.591Z,46.60
2019-02-22T01:43:33.381Z,41.10
2019-02-22T01:44:36.256Z,42.80
2019-02-22T01:45:39.702Z,35.40
2019-02-22T01:46:43.128Z,39.10
2019-02-22T01:47:46.630Z,43.35
2019-02-22T01:48:50.083Z,38.25
2019-02-22T01:49:53.545Z,37.65
2019-02-22T01:50:56.999Z,43.42
2019-02-22T01:52:00.546Z,35.70
2019-02-22T01:53:03.974Z,34.03
2019-02-22T01:54:07.410Z,37.48
2019-02-22T01:55:10.910Z,38.28
2019-02-22T01:56:14.504Z,34.78
2019-02-22T01:57:17.930Z,35.20
2019-02-22T01:58:21.435Z,38.00
2019-02-22T01:59:24.868Z,35.65
2019-02-22T02:00:28.378Z,54.30
2019-02-22T02:01:31.909Z,41.18
2019-02-22T02:02:35.339Z,39.30
2019-02-22T02:03:38.766Z,35.30
2019-02-22T02:04:42.212Z,38.33
2019-02-22T02:05:45.715Z,32.33
2019-02-22T02:06:49.232Z,39.75
2019-02-22T02:07:52.676Z,32.65
2019-02-22T02:08:56.112Z,29.48
2019-02-22T02:09:59.533Z,33.88
2019-02-22T02:11:02.959Z,37.60
2019-02-22T02:12:06.417Z,45.00
2019-02-22T02:13:09.883Z,37.10
2019-02-22T02:14:13.313Z,35.20
2019-02-22T02:15:16.761Z,32.48
2019-02-22T02:16:20.190Z,34.27
2019-02-22T02:17:23.648Z,48.65
2019-02-22T02:18:27.098Z,35.73
2019-02-22T02:19:30.530Z,41.63
2019-02-22T02:20:33.962Z,40.25
2019-02-22T02:21:37.482Z,38.23
2019-02-22T02:22:40.913Z,39.85
2019-02-22T02:23:44.430Z,36.77
2019-02-22T02:24:47.851Z,38.48
2019-02-22T02:25:51.351Z,44.38
2019-02-22T02:26:54.790Z,34.92
2019-02-22T02:27:58.235Z,36.48
2019-02-22T02:29:01.750Z,40.15
2019-02-22T02:30:07.617Z,44.38
2019-02-22T02:31:11.031Z,49.60
2019-02-22T02:32:14.473Z,44.77
2019-02-22T02:33:17.987Z,46.13
2019-02-22T02:34:21.483Z,48.95
2019-02-22T02:35:24.984Z,44.65
2019-02-22T02:36:28.434Z,46.42
2019-02-22T02:37:31.869Z,43.02
2019-02-22T02:38:35.301Z,53.15
2019-02-22T02:39:38.773Z,46.18
2019-02-22T02:40:42.191Z,48.65
2019-02-22T02:41:45.621Z,49.83
2019-02-22T02:42:49.053Z,51.00
2019-02-22T02:43:52.511Z,47.40
2019-02-22T02:44:55.944Z,46.55
2019-02-22T02:45:59.377Z,47.03
2019-02-22T02:47:02.806Z,49.42
2019-02-22T02:48:06.248Z,46.40
2019-02-22T02:49:09.704Z,46.60
2019-02-22T02:50:16.187Z,50.67
2019-02-22T02:51:19.696Z,54.55
2019-02-22T02:52:23.166Z,55.80
2019-02-22T02:53:26.604Z,49.88
2019-02-22T02:54:30.057Z,51.18
2019-02-22T02:55:34.950Z,45.25
2019-02-22T02:56:38.453Z,52.58
2019-02-22T02:57:41.894Z,50.98
2019-02-22T02:58:45.327Z,53.38
2019-02-22T02:59:48.774Z,57.88
2019-02-22T03:00:52.214Z,56.23
2019-02-22T03:01:55.718Z,52.85
2019-02-22T03:02:59.287Z,54.30
2019-02-22T03:04:02.718Z,52.43
2019-02-22T03:05:06.311Z,52.62
2019-02-22T03:06:11.402Z,51.00
2019-02-22T03:07:16.463Z,53.38
2019-02-22T03:08:20.467Z,55.25
2019-02-22T03:09:23.906Z,48.75
2019-02-22T03:10:27.398Z,47.35
2019-02-22T03:11:30.860Z,50.03
2019-02-22T03:12:34.270Z,56.20
2019-02-22T03:13:37.703Z,57.25
2019-02-22T03:14:41.139Z,54.98
2019-02-22T03:15:44.656Z,48.17
2019-02-22T03:16:48.047Z,60.52
2019-02-22T03:17:51.487Z,57.43
2019-02-22T03:18:54.945Z,61.30
2019-02-22T03:19:58.393Z,58.68
2019-02-22T03:21:01.836Z,58.20
2019-02-22T03:22:05.342Z,55.88
2019-02-22T03:23:08.779Z,62.55
2019-02-22T03:24:12.223Z,51.40
2019-02-22T03:25:15.656Z,49.18
2019-02-22T03:26:19.115Z,53.65
2019-02-22T03:27:22.635Z,56.13
2019-02-22T03:28:26.065Z,57.03
2019-02-22T03:29:29.507Z,58.85
2019-02-22T03:30:33.027Z,64.45
2019-02-22T03:31:36.560Z,57.88
2019-02-22T03:32:40.010Z,63.52
2019-02-22T03:33:43.451Z,62.98
2019-02-22T03:34:46.959Z,58.70
2019-02-22T03:35:50.388Z,56.68
2019-02-22T03:36:53.869Z,52.93
2019-02-22T03:37:57.309Z,64.27
2019-02-22T03:39:00.742Z,56.58
2019-02-22T03:40:05.910Z,59.73
2019-02-22T03:41:09.349Z,53.85
2019-02-22T03:42:12.814Z,57.62
2019-02-22T03:43:16.248Z,58.65
2019-02-22T03:44:19.688Z,64.77
2019-02-22T03:45:23.126Z,56.73
2019-02-22T03:46:26.563Z,57.30
2019-02-22T03:47:30.093Z,57.58
2019-02-22T03:48:33.533Z,57.20
2019-02-22T03:49:37.066Z,60.43
2019-02-22T03:50:40.505Z,56.37
2019-02-22T03:51:43.944Z,52.17
2019-02-22T03:52:51.529Z,51.90
2019-02-22T03:53:57.393Z,55.78
2019-02-22T03:55:00.502Z,54.53
2019-02-22T03:56:04.078Z,60.08
2019-02-22T03:57:07.642Z,52.23
2019-02-22T03:58:11.184Z,56.08
2019-02-22T03:59:14.750Z,51.28
2019-02-22T04:00:18.259Z,59.23
2019-02-22T04:01:21.819Z,52.53
2019-02-22T04:02:25.405Z,53.25
2019-02-22T04:03:28.918Z,49.98
2019-02-22T04:04:32.445Z,52.20
2019-02-22T04:05:35.879Z,53.40
2019-02-22T04:06:39.310Z,52.20
2019-02-22T04:07:42.739Z,66.67
2019-02-22T04:08:46.492Z,55.73
2019-02-22T04:09:49.921Z,52.62
2019-02-22T04:10:53.363Z,54.05
2019-02-22T04:11:56.786Z,51.98
2019-02-22T04:13:00.234Z,56.05
2019-02-22T04:14:03.692Z,52.60
2019-02-22T04:15:09.683Z,54.93
2019-02-22T04:16:13.186Z,45.43
2019-02-22T04:17:16.617Z,52.40
2019-02-22T04:18:20.136Z,57.90
2019-02-22T04:19:23.625Z,55.65
2019-02-22T04:20:27.152Z,61.70
2019-02-22T04:21:30.600Z,63.68
2019-02-22T04:22:34.095Z,52.53
2019-02-22T04:23:37.595Z,51.75
2019-02-22T04:24:41.067Z,51.63
2019-02-22T04:25:44.642Z,52.55
2019-02-22T04:26:48.079Z,55.90
2019-02-22T04:27:51.513Z,51.23
2019-02-22T04:28:54.952Z,58.98
2019-02-22T04:29:58.410Z,52.88
2019-02-22T04:31:01.839Z,50.25
2019-02-22T04:32:05.340Z,65.55
2019-02-22T04:33:08.906Z,49.98
2019-02-22T04:34:12.375Z,57.00
2019-02-22T04:35:15.785Z,51.48
2019-02-22T04:36:19.230Z,54.23
2019-02-22T04:37:22.661Z,55.73
2019-02-22T04:38:26.105Z,53.00
2019-02-22T04:39:29.536Z,54.83
2019-02-22T04:40:33.066Z,52.85
2019-02-22T04:41:36.519Z,60.85
2019-02-22T04:42:39.961Z,52.15
2019-02-22T04:43:43.387Z,58.23
2019-02-22T04:44:46.828Z,57.40
2019-02-22T04:45:50.277Z,62.10
2019-02-22T04:46:53.719Z,55.12
2019-02-22T04:47:57.281Z,54.63
2019-02-22T04:49:00.655Z,60.83
2019-02-22T04:50:04.462Z,53.90
2019-02-22T04:51:07.979Z,56.53
2019-02-22T04:52:11.508Z,54.98
2019-02-22T04:53:14.941Z,48.68
2019-02-22T04:54:18.387Z,53.13
2019-02-22T04:55:21.849Z,48.58
2019-02-22T04:56:25.338Z,56.18
2019-02-22T04:57:28.846Z,48.02
2019-02-22T04:58:32.278Z,53.73
2019-02-22T04:59:35.733Z,53.17
2019-02-22T05:00:39.182Z,58.42
2019-02-22T05:01:42.606Z,51.48
2019-02-22T05:02:46.129Z,53.00
2019-02-22T05:03:49.573Z,52.80
2019-02-22T05:04:53.081Z,52.23
2019-02-22T05:05:56.515Z,58.80
2019-02-22T05:06:59.983Z,59.35
2019-02-22T05:08:03.418Z,53.87
2019-02-22T05:09:07.000Z,55.78
2019-02-22T05:10:10.430Z,61.02
2019-02-22T05:11:13.873Z,58.25
2019-02-22T05:12:17.312Z,63.00
2019-02-22T05:13:20.746Z,59.08
2019-02-22T05:14:24.187Z,50.48
2019-02-22T05:15:27.631Z,56.00
2019-02-22T05:16:31.067Z,56.98
2019-02-22T05:17:35.719Z,53.00
2019-02-22T05:18:39.318Z,63.30
2019-02-22T05:19:42.762Z,56.42
2019-02-22T05:20:46.261Z,57.70
2019-02-22T05:21:49.719Z,61.18
2019-02-22T05:23:03.363Z,61.70
2019-02-22T05:23:58.325Z,56.80
2019-02-22T05:25:01.766Z,57.95
2019-02-22T05:26:05.353Z,61.28
2019-02-22T05:27:08.774Z,61.18
2019-02-22T05:28:12.224Z,59.00
2019-02-22T05:29:15.677Z,59.85
2019-02-22T05:30:19.181Z,55.90
2019-02-22T05:31:22.606Z,63.08
2019-02-22T05:32:26.122Z,59.03
2019-02-22T05:33:29.561Z,55.38
2019-02-22T05:34:33.011Z,54.15
2019-02-22T05:35:36.450Z,56.37
2019-02-22T05:36:39.889Z,60.05
2019-02-22T05:37:43.394Z,61.70
2019-02-22T05:38:46.843Z,66.05
2019-02-22T05:39:50.322Z,60.83
2019-02-22T05:40:53.737Z,53.83
2019-02-22T05:41:57.182Z,71.07
2019-02-22T05:43:00.623Z,63.45
2019-02-22T05:44:04.071Z,66.35
2019-02-22T05:45:07.939Z,55.03
2019-02-22T05:46:11.431Z,58.02
2019-02-22T05:47:14.875Z,57.73
2019-02-22T05:48:18.300Z,61.45
2019-02-22T05:49:22.561Z,76.40
2019-02-22T05:50:26.065Z,61.58
2019-02-22T05:51:29.573Z,64.70
2019-02-22T05:52:33.104Z,59.88
2019-02-22T05:53:36.551Z,58.40
2019-02-22T05:54:40.045Z,61.77
2019-02-22T05:55:44.426Z,60.48
2019-02-22T05:56:47.963Z,58.75
2019-02-22T05:57:51.387Z,66.40
2019-02-22T05:58:54.818Z,74.53
2019-02-22T05:59:58.292Z,71.33
2019-02-22T06:01:01.743Z,67.82
2019-02-22T06:02:05.363Z,62.35
2019-02-22T06:03:08.895Z,68.00
2019-02-22T06:04:12.352Z,58.78
2019-02-22T06:05:15.845Z,63.00
2019-02-22T06:06:19.384Z,64.30
2019-02-22T06:07:22.923Z,62.17
2019-02-22T06:08:26.506Z,53.80
2019-02-22T06:09:29.951Z,61.85
2019-02-22T06:10:33.491Z,58.48
2019-02-22T06:11:36.928Z,63.70
2019-02-22T06:12:40.516Z,65.17
2019-02-22T06:13:43.978Z,60.17
2019-02-22T06:14:47.414Z,56.90
2019-02-22T06:15:50.858Z,63.02
2019-02-22T06:16:54.298Z,67.40
2019-02-22T06:17:57.727Z,61.95
2019-02-22T06:19:01.235Z,61.28
2019-02-22T06:20:07.382Z,66.20
2019-02-22T06:21:10.896Z,66.62
2019-02-22T06:22:14.358Z,68.97
2019-02-22T06:23:17.781Z,60.78
2019-02-22T06:24:21.229Z,69.35
2019-02-22T06:25:24.664Z,65.72
2019-02-22T06:26:30.391Z,60.05
2019-02-22T06:27:33.385Z,64.40
2019-02-22T06:28:36.889Z,66.05
2019-02-22T06:29:40.335Z,69.17
2019-02-22T06:30:43.833Z,70.87
2019-02-22T06:31:47.381Z,67.70
2019-02-22T06:32:50.852Z,74.65
2019-02-22T06:33:54.296Z,71.12
2019-02-22T06:34:57.737Z,64.92
2019-02-22T06:36:01.208Z,67.17
2019-02-22T06:37:04.787Z,67.90
2019-02-22T06:38:08.254Z,68.97
2019-02-22T06:39:11.764Z,88.82
2019-02-22T06:40:15.196Z,69.55
2019-02-22T06:41:18.632Z,65.83
2019-02-22T06:42:22.171Z,69.05
2019-02-22T06:43:25.624Z,76.02
2019-02-22T06:44:29.068Z,67.70
2019-02-22T06:45:32.499Z,67.80
2019-02-22T06:46:35.930Z,72.03
2019-02-22T06:47:39.387Z,69.72
2019-02-22T06:48:42.851Z,65.92
2019-02-22T06:49:46.290Z,63.50
2019-02-22T06:50:49.733Z,72.12
2019-02-22T06:51:53.158Z,76.47
2019-02-22T06:52:56.615Z,75.97
2019-02-22T06:54:00.079Z,72.78
2019-02-22T06:55:04.059Z,74.15
2019-02-22T06:56:07.625Z,72.72
2019-02-22T06:57:11.058Z,66.70
2019-02-22T06:58:14.606Z,77.40
2019-02-22T06:59:18.051Z,74.10
2019-02-22T07:00:21.535Z,69.55
2019-02-22T07:01:24.947Z,69.35
2019-02-22T07:02:28.380Z,66.15
2019-02-22T07:03:31.835Z,73.45
2019-02-22T07:04:35.272Z,64.40
2019-02-22T07:05:38.709Z,70.20
2019-02-22T07:06:42.195Z,66.75
2019-02-22T07:07:45.689Z,68.22
2019-02-22T07:08:49.157Z,74.72
2019-02-22T07:09:52.668Z,69.20
2019-02-22T07:10:57.874Z,60.90
2019-02-22T07:12:05.719Z,65.52
2019-02-22T07:13:09.149Z,74.05
2019-02-22T07:14:12.608Z,77.03
2019-02-22T07:15:16.045Z,74.80
2019-02-22T07:16:19.560Z,70.52
2019-02-22T07:17:23.003Z,65.12
2019-02-22T07:18:26.439Z,67.45
2019-02-22T07:19:29.894Z,67.05
2019-02-22T07:20:33.347Z,68.50
2019-02-22T07:21:51.657Z,57.62
2019-02-22T07:22:42.008Z,62.90
2019-02-22T07:23:45.434Z,65.00
2019-02-22T07:24:48.893Z,64.45
2019-02-22T07:25:52.322Z,67.17
2019-02-22T07:26:55.771Z,60.08
2019-02-22T07:27:59.246Z,60.52
2019-02-22T07:29:02.648Z,59.42
2019-02-22T07:30:09.138Z,85.50
2019-02-22T07:31:12.593Z,66.65
2019-02-22T07:32:16.037Z,55.10
2019-02-22T07:33:19.538Z,61.70
2019-02-22T07:34:23.054Z,57.62
2019-02-22T07:35:26.529Z,61.37
2019-02-22T07:36:30.039Z,59.88
2019-02-22T07:37:33.501Z,57.25
2019-02-22T07:38:36.918Z,60.63
2019-02-22T07:39:40.346Z,60.38
2019-02-22T07:40:43.807Z,63.40
2019-02-22T07:41:47.323Z,61.98
2019-02-22T07:42:50.769Z,58.55
2019-02-22T07:43:54.211Z,59.20
2019-02-22T07:44:57.641Z,59.55
2019-02-22T07:46:01.100Z,60.45
2019-02-22T07:47:04.618Z,58.15
2019-02-22T07:48:08.067Z,56.68
2019-02-22T07:49:11.497Z,59.65
2019-02-22T07:50:15.063Z,65.70
2019-02-22T07:51:18.453Z,57.08
2019-02-22T07:52:21.887Z,63.23
2019-02-22T07:53:25.317Z,62.23
2019-02-22T07:54:28.751Z,55.40
2019-02-22T07:55:32.192Z,61.45
2019-02-22T07:56:35.702Z,61.83
2019-02-22T07:57:40.121Z,59.30
2019-02-22T07:58:43.766Z,62.75
2019-02-22T07:59:47.222Z,59.20
2019-02-22T08:00:50.705Z,59.63
2019-02-22T08:01:54.300Z,59.08
2019-02-22T08:02:57.731Z,63.30
2019-02-22T08:04:01.173Z,62.90
2019-02-22T08:05:05.153Z,56.30
2019-02-22T08:06:08.600Z,58.38
2019-02-22T08:07:12.155Z,59.00
2019-02-22T08:08:15.591Z,63.28
2019-02-22T08:09:19.027Z,66.30
2019-02-22T08:10:22.526Z,62.20
2019-02-22T08:11:25.960Z,60.20
2019-02-22T08:12:29.411Z,58.48
2019-02-22T08:13:32.883Z,63.02
2019-02-22T08:14:36.365Z,64.45
2019-02-22T08:15:39.879Z,57.45
2019-02-22T08:16:43.392Z,64.85
2019-02-22T08:17:47.060Z,60.65
2019-02-22T08:19:01.199Z,66.42
2019-02-22T08:19:55.606Z,58.52
2019-02-22T08:20:59.044Z,67.50
2019-02-22T08:22:03.526Z,64.30
2019-02-22T08:23:07.151Z,62.60
2019-02-22T08:24:10.593Z,62.53
2019-02-22T08:25:14.107Z,65.52
2019-02-22T08:26:17.538Z,64.15
2019-02-22T08:27:20.976Z,62.50
2019-02-22T08:28:24.432Z,62.90
2019-02-22T08:29:27.864Z,62.03
2019-02-22T08:30:31.373Z,61.37
2019-02-22T08:31:34.813Z,65.97
2019-02-22T08:32:38.338Z,63.87
2019-02-22T08:33:41.784Z,63.42
2019-02-22T08:34:45.978Z,63.25
2019-02-22T08:35:49.532Z,64.92
2019-02-22T08:36:52.963Z,65.90
2019-02-22T08:37:56.471Z,64.05
2019-02-22T08:38:59.925Z,64.55
2019-02-22T08:40:03.709Z,65.50
2019-02-22T08:41:07.169Z,64.72
2019-02-22T08:42:10.589Z,66.72
2019-02-22T08:43:14.167Z,57.90
2019-02-22T08:44:17.624Z,68.00
2019-02-22T08:45:21.139Z,62.27
2019-02-22T08:46:24.566Z,65.17
2019-02-22T08:47:28.002Z,70.17
2019-02-22T08:48:31.440Z,62.60
2019-02-22T08:49:34.900Z,88.50
2019-02-22T08:50:38.613Z,64.60
2019-02-22T08:51:42.046Z,63.90
2019-02-22T08:52:45.602Z,62.08
2019-02-22T08:53:48.984Z,61.73
2019-02-22T08:54:52.515Z,59.18
2019-02-22T08:55:55.950Z,66.75
2019-02-22T08:56:59.390Z,66.07
2019-02-22T08:58:02.888Z,62.20
2019-02-22T08:59:06.340Z,66.20
2019-02-22T09:00:12.284Z,61.25
2019-02-22T09:01:20.016Z,60.50
2019-02-22T09:02:23.445Z,65.70
2019-02-22T09:03:26.888Z,65.12
2019-02-22T09:04:30.308Z,70.22
2019-02-22T09:05:33.835Z,66.75
2019-02-22T09:06:37.325Z,68.87
2019-02-22T09:07:40.767Z,70.05
2019-02-22T09:08:44.348Z,70.47
2019-02-22T09:09:48.068Z,70.45
2019-02-22T09:11:00.131Z,63.40
2019-02-22T09:11:57.763Z,74.15
2019-02-22T09:13:01.267Z,72.35
2019-02-22T09:14:04.692Z,72.00
2019-02-22T09:15:09.765Z,66.92
2019-02-22T09:16:13.253Z,68.97
2019-02-22T09:17:16.740Z,69.80
2019-02-22T09:18:20.198Z,73.92
2019-02-22T09:19:23.685Z,69.90
2019-02-22T09:20:27.127Z,74.92
2019-02-22T09:21:30.595Z,74.80
2019-02-22T09:22:34.043Z,76.70
2019-02-22T09:23:37.490Z,66.80
2019-02-22T09:24:40.934Z,81.50
2019-02-22T09:25:44.526Z,76.90
2019-02-22T09:26:48.155Z,67.67
2019-02-22T09:27:51.606Z,70.78
2019-02-22T09:28:55.633Z,70.75
2019-02-22T09:29:59.336Z,71.77
2019-02-22T09:31:02.901Z,77.37
2019-02-22T09:32:06.509Z,73.22
2019-02-22T09:33:09.970Z,76.50
2019-02-22T09:34:13.404Z,80.90
2019-02-22T09:35:16.841Z,79.40
2019-02-22T09:36:20.276Z,72.15
2019-02-22T09:37:23.806Z,75.45
2019-02-22T09:38:27.244Z,75.40
2019-02-22T09:39:30.679Z,79.70
2019-02-22T09:40:34.171Z,75.65
2019-02-22T09:41:37.606Z,76.80
2019-02-22T09:42:41.064Z,72.00
2019-02-22T09:43:54.641Z,74.20
2019-02-22T09:44:49.718Z,77.37
2019-02-22T09:45:53.218Z,73.90
2019-02-22T09:46:56.655Z,83.15
2019-02-22T09:48:00.164Z,82.55
2019-02-22T09:49:03.789Z,75.30
2019-02-22T09:50:10.152Z,75.90
2019-02-22T09:51:13.589Z,71.67
2019-02-22T09:52:17.034Z,77.97
2019-02-22T09:53:20.489Z,83.10
2019-02-22T09:54:23.933Z,76.70
2019-02-22T09:55:27.367Z,89.62
2019-02-22T09:56:30.885Z,76.25
2019-02-22T09:57:34.315Z,78.75
2019-02-22T09:58:37.758Z,79.37
2019-02-22T09:59:41.314Z,82.75
2019-02-22T10:00:44.952Z,68.45
2019-02-22T10:01:48.428Z,75.70
2019-02-22T10:02:51.864Z,80.17
2019-02-22T10:03:55.573Z,76.20
2019-02-22T10:04:59.318Z,74.85
2019-02-22T10:06:03.086Z,79.90
2019-02-22T10:07:06.774Z,74.50
2019-02-22T10:08:10.324Z,83.12
2019-02-22T10:09:14.241Z,74.70
2019-02-22T10:10:17.781Z,81.57
2019-02-22T10:11:21.233Z,91.00
2019-02-22T10:12:24.674Z,88.03
2019-02-22T10:13:28.157Z,68.50
2019-02-22T10:14:31.750Z,70.47
2019-02-22T10:15:35.214Z,78.60
2019-02-22T10:16:38.821Z,73.30
2019-02-22T10:17:42.311Z,70.45
2019-02-22T10:18:45.848Z,72.10
2019-02-22T10:19:49.299Z,74.72
2019-02-22T10:20:53.186Z,71.17
2019-02-22T10:21:57.614Z,72.87
2019-02-22T10:23:01.336Z,71.65
2019-02-22T10:24:04.875Z,68.30
2019-02-22T10:25:08.765Z,71.05
2019-02-22T10:26:12.269Z,70.45
2019-02-22T10:27:15.790Z,86.42
2019-02-22T10:28:19.295Z,67.55
2019-02-22T10:29:22.798Z,76.72
2019-02-22T10:30:26.402Z,74.72
2019-02-22T10:31:29.992Z,72.72
2019-02-22T10:32:33.636Z,73.45
2019-02-22T10:33:37.136Z,69.92
2019-02-22T10:34:40.585Z,69.45
2019-02-22T10:35:44.039Z,71.77
2019-02-22T10:36:47.566Z,66.00
2019-02-22T10:37:51.021Z,71.10
2019-02-22T10:38:54.652Z,67.95
2019-02-22T10:39:58.094Z,64.12
2019-02-22T10:41:01.838Z,63.90
2019-02-22T10:42:05.354Z,66.90
2019-02-22T10:43:08.979Z,62.30
2019-02-22T10:44:17.678Z,72.95
2019-02-22T10:45:17.776Z,64.95
2019-02-22T10:46:22.342Z,68.97
2019-02-22T10:47:26.123Z,66.22
2019-02-22T10:48:29.656Z,70.47
2019-02-22T10:49:33.175Z,61.48
2019-02-22T10:50:36.637Z,61.73
2019-02-22T10:51:40.262Z,71.00
2019-02-22T10:52:43.913Z,66.60
2019-02-22T10:53:47.479Z,67.25
2019-02-22T10:54:51.026Z,72.25
2019-02-22T10:55:54.494Z,65.57
2019-02-22T10:56:57.924Z,63.02
2019-02-22T10:58:01.587Z,66.92
2019-02-22T10:59:05.111Z,61.40
2019-02-22T11:00:15.224Z,64.90
2019-02-22T11:01:18.686Z,64.95
2019-02-22T11:02:22.177Z,62.45
2019-02-22T11:03:25.675Z,68.60
2019-02-22T11:04:29.180Z,65.25
2019-02-22T11:05:32.901Z,62.70
2019-02-22T11:06:36.377Z,64.87
2019-02-22T11:07:40.046Z,67.40
2019-02-22T11:08:43.550Z,66.37
2019-02-22T11:09:47.144Z,65.28
2019-02-22T11:10:50.811Z,65.05
2019-02-22T11:11:54.375Z,63.33
2019-02-22T11:12:57.838Z,60.40
2019-02-22T11:14:01.646Z,59.80
2019-02-22T11:15:08.170Z,59.18
2019-02-22T11:16:11.777Z,59.15
2019-02-22T11:17:15.434Z,64.67
2019-02-22T11:18:18.957Z,62.98
2019-02-22T11:19:22.588Z,62.48
2019-02-22T11:20:26.051Z,59.85
2019-02-22T11:21:29.637Z,56.18
2019-02-22T11:22:33.079Z,61.55
2019-02-22T11:23:36.543Z,58.48
2019-02-22T11:24:40.036Z,58.63
2019-02-22T11:25:43.665Z,60.17
2019-02-22T11:26:47.257Z,63.42
2019-02-22T11:27:50.694Z,66.85
2019-02-22T11:28:54.235Z,57.35
2019-02-22T11:29:57.752Z,63.65
2019-02-22T11:31:01.416Z,65.47
2019-02-22T11:32:04.998Z,62.78
2019-02-22T11:33:08.525Z,61.45
2019-02-22T11:34:12.274Z,59.55
2019-02-22T11:35:15.882Z,65.97
2019-02-22T11:36:19.540Z,62.83
2019-02-22T11:37:23.217Z,70.08
2019-02-22T11:38:27.040Z,68.15
2019-02-22T11:39:30.710Z,58.28
2019-02-22T11:40:34.206Z,57.43
2019-02-22T11:41:37.651Z,57.30
2019-02-22T11:42:41.134Z,57.13
2019-02-22T11:43:44.643Z,64.53
2019-02-22T11:44:48.302Z,60.90
2019-02-22T11:45:53.352Z,59.83
2019-02-22T11:46:57.173Z,60.92
2019-02-22T11:48:08.799Z,61.63
2019-02-22T11:49:06.517Z,56.28
2019-02-22T11:50:11.286Z,57.17
2019-02-22T11:51:15.301Z,60.52
2019-02-22T11:52:19.108Z,61.70
2019-02-22T11:53:22.712Z,70.80
2019-02-22T11:54:26.382Z,64.15
2019-02-22T11:55:30.007Z,58.38
2019-02-22T11:56:33.549Z,55.73
2019-02-22T11:57:37.212Z,56.02
2019-02-22T11:58:41.940Z,60.63
2019-02-22T11:59:45.349Z,49.98
2019-02-22T12:00:49.077Z,63.58
2019-02-22T12:01:53.039Z,54.25
2019-02-22T12:02:57.122Z,52.13
2019-02-22T12:04:00.631Z,50.17
2019-02-22T12:05:04.680Z,56.80
2019-02-22T12:06:08.374Z,50.58
2019-02-22T12:07:11.847Z,52.20
2019-02-22T12:08:15.279Z,48.17
2019-02-22T12:09:18.739Z,51.13
2019-02-22T12:10:22.211Z,50.73
2019-02-22T12:11:25.760Z,47.60
2019-02-22T12:12:29.411Z,58.02
2019-02-22T12:13:32.876Z,52.30
2019-02-22T12:14:36.561Z,50.78
2019-02-22T12:15:40.175Z,53.28
2019-02-22T12:16:43.613Z,43.50
2019-02-22T12:17:47.149Z,49.88
2019-02-22T12:18:50.613Z,46.63
2019-02-22T12:19:54.208Z,46.70
2019-02-22T12:20:57.871Z,49.10
2019-02-22T12:22:01.430Z,44.85
2019-02-22T12:23:05.100Z,47.83
2019-02-22T12:24:08.536Z,39.73
2019-02-22T12:25:13.126Z,43.35
2019-02-22T12:26:16.652Z,43.23
2019-02-22T12:27:20.080Z,47.15
2019-02-22T12:28:23.565Z,44.42
2019-02-22T12:29:27.005Z,41.28
2019-02-22T12:30:30.642Z,44.85
2019-02-22T12:31:34.441Z,41.70
2019-02-22T12:32:39.599Z,46.68
2019-02-22T12:33:43.094Z,40.45
2019-02-22T12:34:46.831Z,39.03
2019-02-22T12:35:50.228Z,47.80
2019-02-22T12:36:53.979Z,45.40
2019-02-22T12:37:57.503Z,42.03
2019-02-22T12:39:01.038Z,40.48
2019-02-22T12:40:06.895Z,43.10
2019-02-22T12:41:10.699Z,41.50
2019-02-22T12:42:14.256Z,48.10
2019-02-22T12:43:17.704Z,43.50
2019-02-22T12:44:21.172Z,43.70
2019-02-22T12:45:24.678Z,45.00
2019-02-22T12:46:28.239Z,42.27
2019-02-22T12:47:31.696Z,42.53
2019-02-22T12:48:35.283Z,39.13
2019-02-22T12:49:40.276Z,43.55
2019-02-22T12:50:43.843Z,41.75
2019-02-22T12:51:47.316Z,35.38
2019-02-22T12:52:50.843Z,40.52
2019-02-22T12:53:54.293Z,39.63
2019-02-22T12:54:57.831Z,39.10
2019-02-22T12:56:01.265Z,53.68
2019-02-22T12:57:04.720Z,38.90
2019-02-22T12:58:08.158Z,41.53
2019-02-22T12:59:11.590Z,36.53
2019-02-22T13:00:19.656Z,34.88
2019-02-22T13:01:24.608Z,36.13
2019-02-22T13:02:28.154Z,39.27
2019-02-22T13:03:31.779Z,42.10
2019-02-22T13:04:35.215Z,49.55
2019-02-22T13:05:38.655Z,35.92
2019-02-22T13:06:42.096Z,38.10
2019-02-22T13:07:45.599Z,45.23
2019-02-22T13:08:49.050Z,39.83
2019-02-22T13:09:52.473Z,46.70
2019-02-22T13:10:55.931Z,43.98
2019-02-22T13:11:59.386Z,41.48
2019-02-22T13:13:02.970Z,42.90
2019-02-22T13:14:06.565Z,39.40
2019-02-22T13:15:14.312Z,39.45
2019-02-22T13:16:17.065Z,44.65
2019-02-22T13:17:30.444Z,39.20
2019-02-22T13:18:25.757Z,37.25
2019-02-22T13:19:29.252Z,36.40
2019-02-22T13:20:32.743Z,41.15
2019-02-22T13:21:36.265Z,36.93
2019-02-22T13:22:39.717Z,36.17
2019-02-22T13:23:43.251Z,44.55
2019-02-22T13:24:46.727Z,37.00
2019-02-22T13:25:50.193Z,38.60
2019-02-22T13:26:53.621Z,38.17
2019-02-22T13:27:57.154Z,37.98
2019-02-22T13:29:00.762Z,47.65
2019-02-22T13:30:06.838Z,40.92
2019-02-22T13:31:10.567Z,32.75
2019-02-22T13:32:14.028Z,38.65
2019-02-22T13:33:17.519Z,41.55
2019-02-22T13:34:21.054Z,37.13
2019-02-22T13:35:24.505Z,35.00
2019-02-22T13:36:28.047Z,37.73
2019-02-22T13:37:31.553Z,40.75
2019-02-22T13:38:34.998Z,41.53
2019-02-22T13:39:38.463Z,44.83